Time;durP1;ratioP1;P1;durP2;ratioP2;P2;SDS_P1;SDS_P2;PMS_P1;PMS_P2;Temp;Humidity;BMP_temperature;BMP_pressure;BME280_temperature;BME280_humidity;BME280_pressure;Samples;Min_cycle;Max_cycle;Signal;HPM_P1;HPM_P2
2023/05/31 00:02:06;;;;;;;35.22;19.52;;;;;;;19.81;76.70;100653.59;4977658;28;20046;-90
2023/05/31 00:04:31;;;;;;;36.80;19.30;;;;;;;19.70;77.08;100645.81;4979021;28;20050;-90
2023/05/31 00:06:57;;;;;;;31.23;19.17;;;;;;;19.66;76.95;100639.06;4999492;28;20496;-89
2023/05/31 00:09:22;;;;;;;24.40;17.92;;;;;;;19.71;76.91;100644.78;4998209;28;20031;-91
2023/05/31 00:11:48;;;;;;;32.33;20.27;;;;;;;19.78;77.08;100656.69;4982631;28;20034;-91
2023/05/31 00:14:13;;;;;;;31.88;21.55;;;;;;;19.75;77.65;100646.13;4983296;28;20042;-91
2023/05/31 00:16:39;;;;;;;42.65;24.27;;;;;;;19.72;77.92;100651.97;4998571;28;20041;-91
2023/05/31 00:19:04;;;;;;;48.03;24.60;;;;;;;19.75;78.27;100651.59;5015463;28;20034;-89
2023/05/31 00:21:30;;;;;;;37.53;26.00;;;;;;;19.80;78.73;100660.94;5029514;28;20006;-87
2023/05/31 00:23:55;;;;;;;41.38;26.95;;;;;;;19.78;79.15;100651.22;5022434;28;20041;-90
2023/05/31 00:26:22;;;;;;;43.22;27.70;;;;;;;19.71;79.50;100639.34;5025768;28;20029;-90
2023/05/31 00:28:47;;;;;;;47.17;28.50;;;;;;;19.67;79.75;100638.00;5026328;28;20029;-90
2023/05/31 00:31:13;;;;;;;54.25;28.88;;;;;;;19.73;80.16;100653.63;5031099;28;20078;-90
2023/05/31 00:33:38;;;;;;;45.92;29.67;;;;;;;19.63;80.17;100642.97;5034453;28;20034;-90
2023/05/31 00:36:05;;;;;;;46.58;29.60;;;;;;;19.60;80.65;100654.25;5023875;28;20030;-92
2023/05/31 00:38:31;;;;;;;47.40;28.02;;;;;;;19.59;80.76;100646.25;5022111;28;20026;-91
2023/05/31 00:40:56;;;;;;;57.33;29.58;;;;;;;19.55;80.74;100640.31;5019334;28;20056;-90
2023/05/31 00:43:22;;;;;;;57.75;30.05;;;;;;;19.54;80.79;100644.06;5020823;28;20113;-91
2023/05/31 00:45:48;;;;;;;59.53;28.45;;;;;;;19.48;80.83;100640.19;5021822;28;20023;-91
2023/05/31 00:48:14;;;;;;;43.65;29.33;;;;;;;19.50;80.95;100643.59;5019473;28;20050;-91
2023/05/31 00:50:39;;;;;;;44.45;28.48;;;;;;;19.53;80.73;100654.16;5020147;28;20041;-90
2023/05/31 00:53:06;;;;;;;46.13;30.20;;;;;;;19.55;80.59;100645.78;5022046;28;20034;-90
2023/05/31 00:55:32;;;;;;;46.88;28.98;;;;;;;19.55;80.64;100646.63;4998801;28;20035;-91
2023/05/31 00:57:58;;;;;;;49.15;31.25;;;;;;;19.49;81.45;100651.97;4998035;28;20046;-91
2023/05/31 01:00:24;;;;;;;53.55;32.97;;;;;;;19.49;81.57;100657.41;4997199;28;20720;-91
2023/05/31 01:02:51;;;;;;;58.05;31.92;;;;;;;19.42;81.73;100642.78;4996997;28;20049;-91
2023/05/31 01:05:17;;;;;;;52.15;32.78;;;;;;;19.36;81.97;100638.88;4999144;28;20046;-90
2023/05/31 01:07:42;;;;;;;51.80;31.13;;;;;;;19.43;82.51;100652.69;4994619;28;20046;-90
2023/05/31 01:10:08;;;;;;;50.88;30.33;;;;;;;19.55;82.39;100664.88;4998373;28;20049;-90
2023/05/31 01:12:59;;;;;;;57.35;32.53;;;;;;;19.51;82.93;100667.09;4982408;28;20129;-91
2023/05/31 01:15:32;;;;;;;64.25;31.13;;;;;;;19.47;83.22;100660.34;4998794;28;20070;-90
2023/05/31 01:18:24;;;;;;;49.75;30.88;;;;;;;19.47;83.30;100662.22;5000000;28;20030;-89
2023/05/31 01:20:53;;;;;;;60.23;31.03;;;;;;;19.45;83.45;100669.72;4982401;28;20034;-91
2023/05/31 01:23:37;;;;;;;54.17;29.35;;;;;;;19.43;83.60;100659.00;4985577;28;20061;-90
2023/05/31 01:26:33;;;;;;;52.40;31.00;;;;;;;19.40;83.84;100664.81;4975341;28;20022;-90
2023/05/31 01:29:13;;;;;;;58.55;29.83;;;;;;;19.37;84.21;100664.28;4995950;28;20035;-89
2023/05/31 01:31:41;;;;;;;49.17;31.90;;;;;;;19.36;83.82;100663.44;4995057;28;20038;-90
2023/05/31 01:34:07;;;;;;;54.33;30.30;;;;;;;19.27;83.26;100648.16;4985072;28;20029;-91
2023/05/31 01:36:33;;;;;;;45.33;33.08;;;;;;;19.31;83.42;100657.69;4976509;28;20046;-91
2023/05/31 01:39:00;;;;;;;48.67;30.92;;;;;;;19.29;83.67;100670.66;4979530;28;20023;-91
2023/05/31 01:41:28;;;;;;;62.05;31.45;;;;;;;19.31;83.48;100665.88;4980764;28;20474;-90
2023/05/31 01:43:53;;;;;;;41.33;27.10;;;;;;;19.30;83.51;100661.44;4983702;28;20062;-90
2023/05/31 01:46:19;;;;;;;39.05;26.48;;;;;;;19.29;83.43;100667.94;4983751;28;20042;-90
2023/05/31 01:48:46;;;;;;;45.10;28.35;;;;;;;19.24;83.32;100659.41;4984667;28;20086;-90
2023/05/31 01:51:14;;;;;;;50.25;27.20;;;;;;;19.30;83.22;100664.16;4993243;28;20039;-91
2023/05/31 01:53:41;;;;;;;47.53;27.42;;;;;;;19.24;83.13;100653.97;4994977;28;20034;-90
2023/05/31 01:56:08;;;;;;;47.97;27.60;;;;;;;19.38;82.98;100666.00;5002167;28;20038;-89
2023/05/31 01:58:38;;;;;;;54.28;26.25;;;;;;;19.31;82.84;100654.09;5024819;28;20069;-91
2023/05/31 02:01:04;;;;;;;47.42;25.00;;;;;;;19.37;82.84;100680.66;5024559;28;20025;-90
2023/05/31 02:03:29;;;;;;;48.88;26.00;;;;;;;19.19;82.54;100644.63;5027995;28;20697;-90
2023/05/31 02:05:55;;;;;;;42.08;24.65;;;;;;;19.36;82.31;100668.88;5038188;28;20025;-91
2023/05/31 02:08:21;;;;;;;43.58;24.17;;;;;;;19.11;82.68;100641.97;5038189;28;20022;-91
2023/05/31 02:10:46;;;;;;;39.15;22.65;;;;;;;19.26;82.77;100668.28;5039822;28;20014;-90
2023/05/31 02:13:12;;;;;;;45.85;22.38;;;;;;;19.24;82.88;100664.88;5039542;28;20032;-88
2023/05/31 02:15:41;;;;;;;34.90;22.80;;;;;;;19.20;83.23;100676.34;5020314;28;20055;-90
2023/05/31 02:18:07;;;;;;;47.80;24.52;;;;;;;19.23;83.21;100665.91;5028105;28;20038;-89
2023/05/31 02:20:34;;;;;;;34.08;21.48;;;;;;;19.29;82.94;100677.97;5029620;28;20109;-89
2023/05/31 02:22:59;;;;;;;30.83;20.30;;;;;;;19.18;83.11;100665.59;5027450;28;20569;-89
2023/05/31 02:25:25;;;;;;;35.47;22.00;;;;;;;19.21;83.31;100665.22;5035921;28;20014;-90
2023/05/31 02:27:50;;;;;;;42.13;24.00;;;;;;;19.18;83.24;100660.13;5037624;28;20012;-89
2023/05/31 02:30:16;;;;;;;45.55;23.38;;;;;;;19.17;83.41;100658.47;5026249;28;20026;-89
2023/05/31 02:32:42;;;;;;;32.95;22.33;;;;;;;19.08;83.40;100659.50;5024381;28;20022;-90
2023/05/31 02:35:09;;;;;;;43.63;23.63;;;;;;;19.08;83.56;100656.78;5020457;28;20022;-89
2023/05/31 02:37:36;;;;;;;43.50;23.83;;;;;;;19.16;83.72;100680.44;5016391;28;20116;-89
2023/05/31 02:40:07;;;;;;;40.50;24.27;;;;;;;19.08;83.87;100664.97;5018311;28;20123;-88
2023/05/31 02:42:34;;;;;;;40.33;24.17;;;;;;;19.08;84.13;100669.59;5021269;28;20034;-90
2023/05/31 02:45:00;;;;;;;41.72;24.05;;;;;;;18.99;84.12;100668.75;5022910;28;20045;-88
2023/05/31 02:47:25;;;;;;;41.58;25.52;;;;;;;19.00;84.53;100667.75;5020469;28;20474;-89
2023/05/31 02:49:51;;;;;;;41.92;24.52;;;;;;;19.03;84.56;100664.66;5020739;28;20037;-89
2023/05/31 02:52:16;;;;;;;37.30;23.65;;;;;;;19.09;84.70;100671.25;5023554;28;20029;-91
2023/05/31 02:54:42;;;;;;;49.10;24.48;;;;;;;19.02;84.80;100668.41;5021409;28;20018;-89
2023/05/31 02:57:07;;;;;;;43.00;24.10;;;;;;;18.84;85.45;100651.44;5018922;28;20116;-88
2023/05/31 02:59:33;;;;;;;51.60;24.27;;;;;;;18.87;85.96;100672.91;5020945;28;20026;-89
2023/05/31 03:01:58;;;;;;;36.38;23.33;;;;;;;18.83;86.17;100671.56;5020308;28;20485;-90
2023/05/31 03:04:27;;;;;;;45.63;25.60;;;;;;;18.82;86.10;100665.28;5024028;28;20037;-90
2023/05/31 03:06:53;;;;;;;36.50;23.40;;;;;;;18.95;86.28;100686.50;5021756;28;20037;-92
2023/05/31 03:09:18;;;;;;;38.05;23.88;;;;;;;18.82;86.44;100669.88;5022192;28;20029;-91
2023/05/31 03:11:44;;;;;;;38.03;22.50;;;;;;;18.93;86.36;100691.28;5023753;28;20033;-88
2023/05/31 03:14:10;;;;;;;52.75;23.67;;;;;;;18.87;86.04;100672.91;5017586;28;20026;-86
2023/05/31 03:16:35;;;;;;;35.80;24.30;;;;;;;18.97;85.93;100696.22;5010713;28;20061;-88
2023/05/31 03:19:01;;;;;;;49.47;22.75;;;;;;;19.00;85.64;100703.19;4984777;28;20085;-86
2023/05/31 03:21:26;;;;;;;44.05;22.50;;;;;;;19.01;85.68;100696.72;4989641;28;20076;-89
2023/05/31 03:23:52;;;;;;;43.42;21.98;;;;;;;19.03;85.77;100703.69;4993067;28;20034;-79
2023/05/31 03:26:17;;;;;;;34.20;22.05;;;;;;;19.13;85.66;100697.16;4986404;28;20046;-76
2023/05/31 03:28:43;;;;;;;38.90;22.05;;;;;;;19.04;85.82;100690.91;4987826;28;20116;-76
2023/05/31 03:31:08;;;;;;;36.88;20.85;;;;;;;19.10;85.72;100700.25;4987581;28;20709;-79
2023/05/31 03:33:35;;;;;;;30.55;20.38;;;;;;;19.14;85.79;100694.28;4987319;28;20034;-78
2023/05/31 03:36:01;;;;;;;39.22;20.98;;;;;;;19.24;85.21;100705.78;4987422;28;20077;-78
2023/05/31 03:38:28;;;;;;;31.35;19.83;;;;;;;19.27;85.39;100701.84;4987627;28;20052;-78
2023/05/31 03:40:53;;;;;;;32.17;16.92;;;;;;;19.29;84.30;100700.66;4987836;28;20109;-77
2023/05/31 03:43:19;;;;;;;27.45;13.27;;;;;;;19.31;81.86;100697.72;4987240;28;20077;-77
2023/05/31 03:45:45;;;;;;;22.40;11.13;;;;;;;19.41;81.15;100707.44;4987329;28;20521;-78
2023/05/31 03:48:11;;;;;;;22.02;11.45;;;;;;;19.54;79.50;100696.75;4998038;28;20037;-78
2023/05/31 03:50:40;;;;;;;27.33;13.68;;;;;;;19.62;78.72;100700.47;5009764;28;20033;-77
2023/05/31 03:53:06;;;;;;;34.15;15.05;;;;;;;19.80;78.85;100715.50;5009667;28;20080;-79
2023/05/31 03:55:32;;;;;;;23.35;8.50;;;;;;;19.83;77.51;100708.84;5009816;28;20432;-78
2023/05/31 03:57:58;;;;;;;18.45;9.85;;;;;;;19.95;75.38;100721.03;5010914;28;20148;-77
2023/05/31 04:00:24;;;;;;;39.58;13.02;;;;;;;19.98;75.51;100712.47;5010761;28;20553;-76
2023/05/31 04:02:49;;;;;;;18.33;9.27;;;;;;;20.17;74.50;100727.50;5011219;28;20037;-81
2023/05/31 04:05:15;;;;;;;27.17;9.90;;;;;;;20.25;73.80;100727.41;5010249;28;20099;-84
2023/05/31 04:07:41;;;;;;;14.00;8.40;;;;;;;20.37;72.03;100731.41;5010572;28;20470;-82
2023/05/31 04:10:07;;;;;;;36.20;10.73;;;;;;;20.45;71.48;100729.50;5011879;28;20136;-85
2023/05/31 04:12:32;;;;;;;20.42;8.15;;;;;;;20.54;70.76;100736.56;5013396;28;20060;-77
2023/05/31 04:14:58;;;;;;;23.02;8.70;;;;;;;20.55;70.38;100721.84;5014206;28;20513;-79
2023/05/31 04:17:23;;;;;;;46.13;8.55;;;;;;;20.70;70.21;100730.06;5028560;28;20052;-81
2023/05/31 04:19:48;;;;;;;38.38;11.90;;;;;;;20.80;70.53;100727.03;5016465;28;20091;-79
2023/05/31 04:22:14;;;;;;;89.05;17.65;;;;;;;20.86;70.69;100729.03;5012306;28;20142;-80
2023/05/31 04:24:39;;;;;;;22.98;8.90;;;;;;;20.98;69.88;100732.97;5008834;28;20030;-78
2023/05/31 04:27:06;;;;;;;35.33;9.57;;;;;;;21.10;68.57;100736.94;5009882;28;20025;-80
2023/05/31 04:29:32;;;;;;;20.77;8.35;;;;;;;21.17;68.15;100730.53;5011730;28;20528;-82
2023/05/31 04:31:58;;;;;;;20.98;7.70;;;;;;;21.14;67.64;100722.72;5009850;28;20030;-84
2023/05/31 04:34:26;;;;;;;65.40;10.65;;;;;;;21.36;67.96;100745.53;5009481;28;20025;-77
2023/05/31 04:36:52;;;;;;;33.83;9.23;;;;;;;21.46;66.21;100747.94;5009359;28;20160;-80
2023/05/31 04:39:19;;;;;;;13.75;6.95;;;;;;;21.54;65.75;100735.00;5010492;28;20042;-85
2023/05/31 04:41:45;;;;;;;25.00;7.10;;;;;;;21.61;64.96;100735.94;5024301;28;20063;-79
2023/05/31 04:44:11;;;;;;;29.52;8.25;;;;;;;21.61;64.67;100724.97;5007403;28;20147;-80
2023/05/31 04:46:36;;;;;;;65.25;10.52;;;;;;;21.79;65.08;100745.59;5009424;28;20057;-79
2023/05/31 04:49:03;;;;;;;25.70;8.45;;;;;;;21.87;64.74;100742.72;5011660;28;20026;-79
2023/05/31 04:51:28;;;;;;;34.17;9.68;;;;;;;22.01;64.53;100747.31;5009127;28;20032;-78
2023/05/31 04:53:53;;;;;;;87.10;12.80;;;;;;;22.16;64.27;100756.31;5008978;28;20033;-78
2023/05/31 04:56:19;;;;;;;26.60;7.93;;;;;;;22.15;63.10;100740.91;5011009;28;20026;-79
2023/05/31 04:58:46;;;;;;;25.15;7.57;;;;;;;22.28;62.56;100743.78;5010265;28;20064;-84
2023/05/31 05:01:14;;;;;;;12.80;6.30;;;;;;;22.37;61.66;100748.06;5009667;28;20060;-80
2023/05/31 05:03:40;;;;;;;38.97;8.48;;;;;;;22.44;60.98;100753.59;5008299;28;20817;-81
2023/05/31 05:06:15;;;;;;;24.17;7.28;;;;;;;22.52;61.05;100754.31;5009118;28;20026;-82
2023/05/31 05:08:42;;;;;;;56.88;11.88;;;;;;;22.59;60.80;100747.00;5009708;28;20038;-80
2023/05/31 05:11:07;;;;;;;23.85;8.18;;;;;;;22.73;60.84;100756.16;5009582;28;20064;-80
2023/05/31 05:13:33;;;;;;;33.83;10.77;;;;;;;22.84;60.75;100758.38;5007750;28;20065;-81
2023/05/31 05:15:58;;;;;;;33.50;12.70;;;;;;;22.90;61.90;100748.50;5010634;28;20026;-82
2023/05/31 05:18:24;;;;;;;36.58;12.90;;;;;;;23.04;62.81;100759.31;5015365;28;20036;-81
2023/05/31 05:20:49;;;;;;;30.55;12.88;;;;;;;23.09;63.46;100762.31;5013601;28;20117;-80
2023/05/31 05:23:15;;;;;;;33.45;12.77;;;;;;;23.13;63.92;100765.50;5012174;28;20048;-78
2023/05/31 05:25:40;;;;;;;51.00;13.45;;;;;;;23.20;63.68;100766.38;5011977;28;20026;-79
2023/05/31 05:28:06;;;;;;;45.97;13.45;;;;;;;23.20;63.62;100760.91;5012390;28;20030;-78
2023/05/31 05:30:32;;;;;;;52.47;13.30;;;;;;;23.26;63.35;100755.44;5012249;28;20025;-80
2023/05/31 05:32:58;;;;;;;47.78;13.88;;;;;;;23.38;63.55;100763.94;5012366;28;20038;-78
2023/05/31 05:35:23;;;;;;;24.55;7.65;;;;;;;23.44;59.95;100768.63;5012283;28;20107;-78
2023/05/31 05:37:49;;;;;;;32.63;7.88;;;;;;;23.55;58.46;100769.94;5012200;28;20034;-77
2023/05/31 05:40:14;;;;;;;73.53;11.48;;;;;;;23.64;57.88;100775.03;5012410;28;20288;-78
2023/05/31 05:42:40;;;;;;;34.97;6.70;;;;;;;23.73;55.99;100776.53;5011665;28;20058;-78
2023/05/31 05:45:07;;;;;;;75.85;9.77;;;;;;;23.82;55.63;100778.06;5012052;28;20033;-76
2023/05/31 05:47:34;;;;;;;23.95;6.25;;;;;;;23.87;54.93;100769.19;5012156;28;20045;-80
2023/05/31 05:49:59;;;;;;;37.47;8.88;;;;;;;23.98;54.22;100770.47;5011820;28;20485;-81
2023/05/31 05:52:25;;;;;;;32.85;8.15;;;;;;;23.99;51.94;100772.19;5012549;28;20034;-80
2023/05/31 05:54:50;;;;;;;45.80;7.57;;;;;;;23.94;51.56;100770.06;5012852;28;20057;-80
2023/05/31 05:57:16;;;;;;;43.10;8.35;;;;;;;24.06;51.31;100775.78;5012065;28;20485;-80
2023/05/31 05:59:42;;;;;;;24.92;6.35;;;;;;;24.09;52.37;100772.63;5011144;28;20379;-78
2023/05/31 06:02:08;;;;;;;24.80;9.27;;;;;;;24.21;52.90;100777.34;5011664;28;20521;-78
2023/05/31 06:04:33;;;;;;;22.27;5.43;;;;;;;24.29;52.78;100776.25;5012279;28;20034;-78
2023/05/31 06:06:58;;;;;;;26.70;5.80;;;;;;;24.45;50.78;100767.63;5012734;28;20026;-77
2023/05/31 06:09:24;;;;;;;25.42;6.13;;;;;;;24.53;49.96;100767.38;5012041;28;20547;-78
2023/05/31 06:11:50;;;;;;;20.20;5.47;;;;;;;24.62;49.38;100763.34;5011993;28;20431;-80
2023/05/31 06:14:15;;;;;;;29.25;5.32;;;;;;;24.75;49.90;100771.59;5012250;28;20095;-78
2023/05/31 06:16:40;;;;;;;19.27;6.30;;;;;;;24.86;49.37;100770.97;5011660;28;20029;-79
2023/05/31 06:19:06;;;;;;;17.52;5.65;;;;;;;24.88;48.93;100766.13;5011724;28;20037;-84
2023/05/31 06:21:32;;;;;;;21.38;6.38;;;;;;;25.00;47.75;100779.22;5013781;28;20097;-76
2023/05/31 06:23:57;;;;;;;18.30;5.82;;;;;;;24.94;45.56;100761.66;5018999;28;20378;-77
2023/05/31 06:26:22;;;;;;;19.73;4.88;;;;;;;25.03;46.29;100774.13;5016010;28;20071;-80
2023/05/31 06:28:48;;;;;;;85.70;8.80;;;;;;;25.14;46.05;100778.09;5011565;28;20049;-79
2023/05/31 06:31:13;;;;;;;26.85;5.97;;;;;;;25.06;46.30;100765.44;5015498;28;20038;-79
2023/05/31 06:33:39;;;;;;;37.88;6.43;;;;;;;25.16;46.33;100765.00;5024223;28;20218;-83
2023/05/31 06:36:04;;;;;;;16.55;4.35;;;;;;;25.16;46.48;100749.34;5035544;28;20018;-81
2023/05/31 06:38:30;;;;;;;20.45;6.18;;;;;;;25.28;46.97;100766.00;5030440;28;20022;-78
2023/05/31 06:40:55;;;;;;;28.75;6.68;;;;;;;25.43;47.32;100770.19;5014122;28;20030;-77
2023/05/31 06:43:20;;;;;;;23.25;6.68;;;;;;;25.48;45.29;100764.00;5011580;28;20125;-76
2023/05/31 06:45:47;;;;;;;28.33;4.70;;;;;;;25.52;45.07;100764.47;5011789;28;20113;-79
2023/05/31 06:48:12;;;;;;;18.08;4.72;;;;;;;25.65;44.62;100781.78;5022064;28;20033;-80
2023/05/31 06:50:38;;;;;;;16.73;5.07;;;;;;;25.60;45.01;100754.03;5017230;28;20030;-81
2023/05/31 06:53:03;;;;;;;22.50;5.35;;;;;;;25.77;45.13;100769.00;5014870;28;20033;-78
2023/05/31 06:55:29;;;;;;;36.45;6.13;;;;;;;25.87;45.22;100774.03;5015576;28;20030;-83
2023/05/31 06:57:54;;;;;;;13.15;4.68;;;;;;;25.86;44.35;100761.31;5013569;28;20103;-78
2023/05/31 07:00:20;;;;;;;17.50;4.97;;;;;;;26.03;43.92;100756.09;5010960;28;20108;-79
2023/05/31 07:02:45;;;;;;;15.90;4.65;;;;;;;26.12;43.47;100763.88;5011968;28;20433;-77
2023/05/31 07:05:11;;;;;;;25.75;5.93;;;;;;;26.19;42.82;100758.38;5011625;28;20395;-79
2023/05/31 07:07:36;;;;;;;14.48;5.53;;;;;;;26.28;41.96;100762.53;5011013;28;20526;-79
2023/05/31 07:10:02;;;;;;;19.33;4.72;;;;;;;26.35;40.15;100766.94;5010514;28;20033;-77
2023/05/31 07:12:28;;;;;;;23.15;5.88;;;;;;;26.38;40.65;100760.13;5010854;28;20038;-79
2023/05/31 07:14:53;;;;;;;34.28;9.57;;;;;;;26.51;40.01;100760.84;5010663;28;20070;-80
2023/05/31 07:17:19;;;;;;;12.13;5.50;;;;;;;26.57;39.10;100753.59;5010362;28;20110;-78
2023/05/31 07:19:49;;;;;;;17.40;5.72;;;;;;;26.55;37.72;100744.69;5011306;28;20037;-78
2023/05/31 07:22:15;;;;;;;18.08;7.85;;;;;;;26.64;37.12;100765.41;5010055;28;20044;-82
2023/05/31 07:24:42;;;;;;;21.63;7.70;;;;;;;26.57;36.66;100759.13;5009821;28;20136;-79
2023/05/31 07:27:08;;;;;;;25.13;7.60;;;;;;;26.64;37.06;100762.66;5009835;28;20045;-78
2023/05/31 07:29:34;;;;;;;12.85;5.32;;;;;;;26.63;36.40;100752.72;5010008;28;20044;-78
2023/05/31 07:31:59;;;;;;;31.85;11.40;;;;;;;26.67;36.64;100751.16;5010118;28;20038;-79
2023/05/31 07:34:25;;;;;;;46.03;7.68;;;;;;;26.78;34.84;100760.63;5010197;28;20034;-78
2023/05/31 07:36:50;;;;;;;21.58;4.25;;;;;;;26.73;30.97;100750.25;5009950;28;20036;-79
2023/05/31 07:39:16;;;;;;;12.95;6.32;;;;;;;26.73;31.37;100753.00;5010114;28;20053;-79
2023/05/31 07:41:42;;;;;;;28.20;7.25;;;;;;;26.87;32.08;100765.66;5010088;28;20148;-79
2023/05/31 07:44:09;;;;;;;19.60;8.60;;;;;;;26.96;31.68;100758.78;5010328;28;20073;-79
2023/05/31 07:46:35;;;;;;;13.98;5.53;;;;;;;27.04;30.64;100766.75;5010053;28;20406;-78
2023/05/31 07:49:02;;;;;;;24.77;5.85;;;;;;;27.09;30.73;100771.59;5008907;28;20037;-80
2023/05/31 07:51:31;;;;;;;20.70;4.70;;;;;;;27.02;32.12;100755.09;5010551;28;20034;-79
2023/05/31 07:53:57;;;;;;;21.60;5.70;;;;;;;27.17;32.81;100764.91;5009422;28;20029;-78
2023/05/31 07:56:23;;;;;;;12.88;4.63;;;;;;;27.21;32.14;100763.38;5009323;28;20051;-77
2023/05/31 07:58:48;;;;;;;32.67;9.10;;;;;;;27.34;31.66;100760.44;5009960;28;20552;-77
2023/05/31 08:01:13;;;;;;;17.70;9.50;;;;;;;27.36;32.27;100752.78;5009593;28;20060;-80
2023/05/31 08:03:40;;;;;;;32.15;11.57;;;;;;;27.51;30.74;100769.84;5010243;28;20666;-80
2023/05/31 08:06:06;;;;;;;32.80;9.13;;;;;;;27.54;30.99;100766.63;5010576;28;20034;-80
2023/05/31 08:08:34;;;;;;;35.63;11.48;;;;;;;27.66;29.87;100781.34;5010453;28;20034;-78
2023/05/31 08:11:00;;;;;;;26.02;6.97;;;;;;;27.73;29.89;100778.47;5010708;28;20068;-79
2023/05/31 08:13:29;;;;;;;22.83;6.00;;;;;;;27.80;29.17;100779.22;5010008;28;20032;-80
2023/05/31 08:15:55;;;;;;;9.35;4.10;;;;;;;27.78;29.30;100789.69;5010054;28;20107;-79
2023/05/31 08:18:21;;;;;;;17.52;7.15;;;;;;;27.68;29.37;100776.41;5013132;28;20085;-79
2023/05/31 08:20:47;;;;;;;14.23;4.93;;;;;;;27.75;29.44;100782.69;5009936;28;20022;-79
2023/05/31 08:23:20;;;;;;;10.93;4.63;;;;;;;27.82;29.27;100783.47;5007759;28;20038;-79
2023/05/31 08:25:46;;;;;;;24.55;7.00;;;;;;;27.89;29.40;100777.81;4991218;28;20038;-78
2023/05/31 08:28:12;;;;;;;23.95;4.32;;;;;;;27.92;30.13;100775.44;5010257;28;20022;-78
2023/05/31 08:30:38;;;;;;;25.88;8.48;;;;;;;28.00;30.39;100766.81;5008431;28;20456;-79
2023/05/31 08:33:03;;;;;;;17.85;6.50;;;;;;;28.09;29.29;100773.72;5010042;28;20030;-79
2023/05/31 08:35:29;;;;;;;25.67;7.55;;;;;;;28.06;27.73;100765.91;5009501;28;20073;-79
2023/05/31 08:37:55;;;;;;;10.10;5.75;;;;;;;27.97;27.67;100777.50;5010182;28;20437;-79
2023/05/31 08:40:22;;;;;;;49.58;8.25;;;;;;;27.91;28.62;100773.75;5009388;28;20030;-80
2023/05/31 08:42:56;;;;;;;18.58;5.03;;;;;;;27.79;29.26;100781.16;5009198;28;20064;-78
2023/05/31 08:45:22;;;;;;;15.45;4.63;;;;;;;27.81;29.85;100783.69;5007646;28;20054;-78
2023/05/31 08:48:13;;;;;;;23.13;6.50;;;;;;;27.85;30.23;100776.63;5009713;28;20034;-78
2023/05/31 08:50:40;;;;;;;14.00;5.72;;;;;;;27.83;30.67;100778.75;5010098;28;20030;-78
2023/05/31 08:53:07;;;;;;;24.15;4.82;;;;;;;27.82;30.16;100772.41;5010029;28;20109;-79
2023/05/31 08:55:33;;;;;;;26.50;5.40;;;;;;;27.87;30.28;100771.69;5011740;28;20029;-77
2023/05/31 08:58:00;;;;;;;11.77;4.97;;;;;;;27.92;30.09;100772.66;5010188;28;20032;-78
2023/05/31 09:00:26;;;;;;;150.68;16.17;;;;;;;28.04;30.30;100768.03;5010324;28;20030;-78
2023/05/31 09:02:52;;;;;;;18.65;5.20;;;;;;;28.18;30.58;100767.84;5010297;28;20084;-80
2023/05/31 09:05:18;;;;;;;27.90;5.32;;;;;;;28.33;30.06;100777.41;5010247;28;20030;-77
2023/05/31 09:07:43;;;;;;;15.40;4.40;;;;;;;28.36;29.87;100759.47;5009699;28;20109;-79
2023/05/31 09:10:10;;;;;;;14.98;4.18;;;;;;;28.34;29.05;100754.19;5009859;28;20040;-79
2023/05/31 09:12:36;;;;;;;21.98;4.65;;;;;;;28.36;29.23;100765.00;5009956;28;20037;-78
2023/05/31 09:15:03;;;;;;;26.63;6.40;;;;;;;28.36;28.68;100773.31;5010002;28;20034;-78
2023/05/31 09:17:31;;;;;;;31.58;4.82;;;;;;;28.39;28.91;100775.59;5010851;28;20105;-81
2023/05/31 09:19:56;;;;;;;16.20;3.97;;;;;;;28.33;27.98;100749.72;5008509;28;20030;-82
2023/05/31 09:22:22;;;;;;;30.90;4.68;;;;;;;28.44;27.98;100761.91;5009451;28;20026;-78
2023/05/31 09:25:00;;;;;;;10.30;3.92;;;;;;;28.31;27.24;100760.19;5010390;28;20029;-78
2023/05/31 09:27:33;;;;;;;26.30;5.75;;;;;;;28.24;27.48;100756.69;5009427;28;20030;-78
2023/05/31 09:30:04;;;;;;;29.20;5.40;;;;;;;28.33;28.52;100765.47;5009436;28;20105;-77
2023/05/31 09:32:29;;;;;;;36.42;4.80;;;;;;;28.37;28.21;100748.19;5009649;28;20034;-79
2023/05/31 09:35:10;;;;;;;23.38;4.07;;;;;;;28.53;27.89;100752.19;5009548;28;20055;-79
2023/05/31 09:37:43;;;;;;;60.00;7.18;;;;;;;28.61;27.89;100768.41;4992168;28;20156;-78
2023/05/31 09:40:08;;;;;;;6.63;3.40;;;;;;;28.65;27.71;100758.59;5009288;28;20498;-77
2023/05/31 09:42:34;;;;;;;8.13;4.00;;;;;;;28.71;27.58;100741.03;5009258;28;20025;-79
2023/05/31 09:45:00;;;;;;;18.20;5.45;;;;;;;28.62;27.80;100759.03;5009578;28;20502;-79
2023/05/31 09:47:25;;;;;;;24.70;8.52;;;;;;;28.60;27.83;100763.97;5009786;28;20593;-79
2023/05/31 09:49:54;;;;;;;13.98;5.32;;;;;;;28.50;27.99;100761.78;5009504;28;20112;-80
2023/05/31 09:52:26;;;;;;;36.92;8.40;;;;;;;28.45;28.43;100763.56;5010389;28;20030;-79
2023/05/31 09:54:51;;;;;;;12.15;5.38;;;;;;;28.51;27.79;100755.16;5013651;28;20024;-79
2023/05/31 09:57:40;;;;;;;11.73;3.63;;;;;;;28.49;27.83;100759.25;5010083;28;20541;-79
2023/05/31 10:00:12;;;;;;;11.75;4.93;;;;;;;28.65;27.63;100755.81;5011544;28;20513;-79
2023/05/31 10:02:38;;;;;;;9.85;3.83;;;;;;;28.80;27.47;100750.66;5011621;28;20022;-79
2023/05/31 10:05:05;;;;;;;20.75;7.15;;;;;;;28.94;27.70;100752.06;5012349;28;20041;-79
2023/05/31 10:07:30;;;;;;;10.20;4.68;;;;;;;28.92;27.02;100751.50;5012708;28;20128;-79
2023/05/31 10:09:56;;;;;;;12.20;4.07;;;;;;;28.74;27.37;100757.16;5010058;28;20558;-82
2023/05/31 10:12:26;;;;;;;10.70;3.22;;;;;;;28.75;27.28;100753.28;5014797;28;20401;-89
2023/05/31 10:15:00;;;;;;;16.67;4.85;;;;;;;28.82;27.48;100740.16;5020492;28;20028;-82
2023/05/31 10:17:35;;;;;;;9.05;3.78;;;;;;;28.87;27.26;100745.81;5012344;28;20045;-80
2023/05/31 10:20:06;;;;;;;28.23;4.68;;;;;;;29.04;27.71;100754.25;5012282;28;20040;-81
2023/05/31 10:22:36;;;;;;;9.75;3.15;;;;;;;29.09;26.76;100744.13;5012963;28;20045;-83
2023/05/31 10:25:06;;;;;;;8.50;3.60;;;;;;;29.27;27.62;100740.38;5011872;28;20036;-82
2023/05/31 10:27:41;;;;;;;22.33;3.75;;;;;;;29.39;27.38;100740.34;5011617;28;20504;-82
2023/05/31 10:30:09;;;;;;;20.88;3.42;;;;;;;29.37;27.43;100734.19;5011386;28;20041;-82
2023/05/31 10:32:46;;;;;;;16.67;4.45;;;;;;;29.27;27.47;100732.06;5010357;28;20424;-82
2023/05/31 10:35:11;;;;;;;20.25;4.78;;;;;;;29.28;27.17;100705.19;5010365;28;20036;-82
2023/05/31 10:37:41;;;;;;;9.57;3.63;;;;;;;29.51;26.90;100735.63;5013237;28;20113;-81
2023/05/31 10:40:15;;;;;;;9.85;3.90;;;;;;;29.69;25.95;100736.25;5012658;28;20045;-81
2023/05/31 10:43:00;;;;;;;6.63;3.33;;;;;;;29.80;25.23;100730.91;5013811;28;20062;-78
2023/05/31 10:45:33;;;;;;;12.23;3.65;;;;;;;29.88;23.87;100747.16;5012384;28;20040;-87
2023/05/31 10:48:22;;;;;;;22.95;5.15;;;;;;;29.90;23.29;100726.44;5015120;28;20084;-81
2023/05/31 10:51:01;;;;;;;13.77;3.97;;;;;;;29.93;24.02;100727.88;5014665;28;20060;-82
2023/05/31 10:53:34;;;;;;;14.63;3.83;;;;;;;30.06;29.99;100731.16;5013814;28;20033;-81
2023/05/31 10:56:03;;;;;;;15.57;4.05;;;;;;;29.65;37.47;100742.56;5020848;28;20030;-83
2023/05/31 10:58:30;;;;;;;23.80;5.25;;;;;;;29.31;40.56;100724.09;5019822;28;20124;-80
2023/05/31 11:00:57;;;;;;;40.85;5.70;;;;;;;29.11;43.74;100744.69;5027955;28;20026;-80
2023/05/31 11:03:27;;;;;;;22.73;5.72;;;;;;;28.66;47.13;100748.34;5013810;28;20034;-81
2023/05/31 11:05:57;;;;;;;16.48;5.00;;;;;;;27.97;50.01;100728.56;5034663;28;20048;-83
2023/05/31 11:08:23;;;;;;;22.88;4.78;;;;;;;27.47;49.90;100733.53;5028106;28;20041;-81
2023/05/31 11:10:49;;;;;;;26.70;5.82;;;;;;;27.36;49.94;100731.53;5036904;28;20040;-76
2023/05/31 11:13:16;;;;;;;16.92;4.60;;;;;;;27.55;49.89;100746.19;5014717;28;20033;-82
2023/05/31 11:15:44;;;;;;;21.48;5.60;;;;;;;27.52;48.65;100746.66;5013117;28;20401;-80